Terminal Aerodrome Forecast
Issued by NWS

Home | Current Version | Previous Version | Text Only | Print | Product List | Glossary On
Versions: 1 2 3 4 5 6 7 8 9 10 11 12 13
493
FTUS45 KFGZ 232320
TAFPRC
TAF
KPRC 232320Z 2400/2424 25010G15KT P6SM FEW250
     FM240400 21005KT P6SM BKN250
     FM242000 24010G20KT P6SM FEW250=

USA.gov is the U.S. government's official web portal to all federal, state and local government web resources and services.